sensor_id;sensor_type;location;lat;lon;timestamp;P1;durP1;ratioP1;P2;durP2;ratioP2
14256;SDS011;7212;53.254;6.456;2022-10-14T00:01:46;8.48;;;7.78;;
14256;SDS011;7212;53.254;6.456;2022-10-14T00:04:12;8.20;;;7.50;;
14256;SDS011;7212;53.254;6.456;2022-10-14T00:06:38;8.82;;;8.13;;
14256;SDS011;7212;53.254;6.456;2022-10-14T00:09:05;8.90;;;8.20;;
14256;SDS011;7212;53.254;6.456;2022-10-14T00:11:33;8.50;;;7.80;;
14256;SDS011;7212;53.254;6.456;2022-10-14T00:14:04;8.60;;;7.90;;
14256;SDS011;7212;53.254;6.456;2022-10-14T00:16:34;8.98;;;8.20;;
14256;SDS011;7212;53.254;6.456;2022-10-14T00:19:02;8.60;;;7.90;;
14256;SDS011;7212;53.254;6.456;2022-10-14T00:21:28;9.13;;;8.43;;
14256;SDS011;7212;53.254;6.456;2022-10-14T00:23:54;8.80;;;8.02;;
14256;SDS011;7212;53.254;6.456;2022-10-14T00:26:25;8.77;;;8.07;;
14256;SDS011;7212;53.254;6.456;2022-10-14T00:28:52;8.60;;;7.90;;
14256;SDS011;7212;53.254;6.456;2022-10-14T00:31:18;8.93;;;8.23;;
14256;SDS011;7212;53.254;6.456;2022-10-14T00:33:44;9.10;;;8.40;;
14256;SDS011;7212;53.254;6.456;2022-10-14T00:36:11;9.27;;;8.48;;
14256;SDS011;7212;53.254;6.456;2022-10-14T00:38:38;9.65;;;8.85;;
14256;SDS011;7212;53.254;6.456;2022-10-14T00:41:04;9.05;;;8.35;;
14256;SDS011;7212;53.254;6.456;2022-10-14T00:43:49;8.20;;;7.60;;
14256;SDS011;7212;53.254;6.456;2022-10-14T00:46:20;8.50;;;7.90;;
14256;SDS011;7212;53.254;6.456;2022-10-14T00:48:46;8.65;;;7.95;;
14256;SDS011;7212;53.254;6.456;2022-10-14T00:51:12;8.23;;;7.63;;
14256;SDS011;7212;53.254;6.456;2022-10-14T00:53:38;8.50;;;7.80;;
14256;SDS011;7212;53.254;6.456;2022-10-14T00:56:08;8.35;;;7.75;;
14256;SDS011;7212;53.254;6.456;2022-10-14T00:58:35;8.18;;;7.47;;
14256;SDS011;7212;53.254;6.456;2022-10-14T01:01:01;8.25;;;7.65;;
14256;SDS011;7212;53.254;6.456;2022-10-14T01:03:27;8.52;;;7.93;;
14256;SDS011;7212;53.254;6.456;2022-10-14T01:09:02;8.48;;;7.78;;
14256;SDS011;7212;53.254;6.456;2022-10-14T01:11:33;8.50;;;7.80;;
14256;SDS011;7212;53.254;6.456;2022-10-14T01:17:19;8.48;;;7.78;;
14256;SDS011;7212;53.254;6.456;2022-10-14T01:19:58;9.00;;;8.30;;
14256;SDS011;7212;53.254;6.456;2022-10-14T01:22:52;9.27;;;8.55;;
14256;SDS011;7212;53.254;6.456;2022-10-14T01:25:39;8.82;;;8.13;;
14256;SDS011;7212;53.254;6.456;2022-10-14T01:31:05;8.35;;;7.65;;
14256;SDS011;7212;53.254;6.456;2022-10-14T01:33:42;8.50;;;7.80;;
14256;SDS011;7212;53.254;6.456;2022-10-14T01:36:17;8.52;;;7.88;;
14256;SDS011;7212;53.254;6.456;2022-10-14T01:38:50;8.80;;;8.05;;
14256;SDS011;7212;53.254;6.456;2022-10-14T01:41:26;7.65;;;7.05;;
14256;SDS011;7212;53.254;6.456;2022-10-14T01:43:52;8.27;;;7.68;;
14256;SDS011;7212;53.254;6.456;2022-10-14T01:46:22;8.25;;;7.65;;
14256;SDS011;7212;53.254;6.456;2022-10-14T01:48:51;8.82;;;8.13;;
14256;SDS011;7212;53.254;6.456;2022-10-14T01:51:44;7.93;;;7.32;;
14256;SDS011;7212;53.254;6.456;2022-10-14T01:54:18;7.65;;;7.05;;
14256;SDS011;7212;53.254;6.456;2022-10-14T01:56:49;8.70;;;8.00;;
14256;SDS011;7212;53.254;6.456;2022-10-14T01:59:17;8.43;;;7.78;;
14256;SDS011;7212;53.254;6.456;2022-10-14T02:01:44;7.93;;;7.32;;
14256;SDS011;7212;53.254;6.456;2022-10-14T02:04:18;8.70;;;8.00;;
14256;SDS011;7212;53.254;6.456;2022-10-14T02:12:29;7.80;;;7.20;;
14256;SDS011;7212;53.254;6.456;2022-10-14T02:17:42;7.63;;;7.03;;
14256;SDS011;7212;53.254;6.456;2022-10-14T02:22:58;7.70;;;7.10;;
14256;SDS011;7212;53.254;6.456;2022-10-14T02:25:35;7.28;;;6.78;;
14256;SDS011;7212;53.254;6.456;2022-10-14T02:28:03;7.10;;;6.60;;
14256;SDS011;7212;53.254;6.456;2022-10-14T02:30:33;7.38;;;6.88;;
14256;SDS011;7212;53.254;6.456;2022-10-14T02:33:02;7.30;;;6.78;;
14256;SDS011;7212;53.254;6.456;2022-10-14T02:35:29;6.75;;;6.25;;
14256;SDS011;7212;53.254;6.456;2022-10-14T02:37:57;7.72;;;7.13;;
14256;SDS011;7212;53.254;6.456;2022-10-14T02:43:02;7.15;;;6.63;;
14256;SDS011;7212;53.254;6.456;2022-10-14T02:45:28;7.05;;;6.45;;
14256;SDS011;7212;53.254;6.456;2022-10-14T02:47:54;6.93;;;6.43;;
14256;SDS011;7212;53.254;6.456;2022-10-14T02:50:20;6.70;;;6.20;;
14256;SDS011;7212;53.254;6.456;2022-10-14T02:52:46;7.32;;;6.72;;
14256;SDS011;7212;53.254;6.456;2022-10-14T02:55:11;6.18;;;5.75;;
14256;SDS011;7212;53.254;6.456;2022-10-14T02:57:37;6.60;;;6.10;;
14256;SDS011;7212;53.254;6.456;2022-10-14T03:00:03;6.93;;;6.43;;
14256;SDS011;7212;53.254;6.456;2022-10-14T03:02:29;5.97;;;5.50;;
14256;SDS011;7212;53.254;6.456;2022-10-14T03:04:55;5.75;;;5.35;;
14256;SDS011;7212;53.254;6.456;2022-10-14T03:07:22;6.03;;;5.63;;
14256;SDS011;7212;53.254;6.456;2022-10-14T03:09:48;5.75;;;5.35;;
14256;SDS011;7212;53.254;6.456;2022-10-14T03:12:14;5.40;;;5.00;;
14256;SDS011;7212;53.254;6.456;2022-10-14T03:14:39;5.90;;;5.50;;
14256;SDS011;7212;53.254;6.456;2022-10-14T03:17:05;5.93;;;5.53;;
14256;SDS011;7212;53.254;6.456;2022-10-14T03:19:31;5.40;;;5.00;;
14256;SDS011;7212;53.254;6.456;2022-10-14T03:21:57;5.90;;;5.50;;
14256;SDS011;7212;53.254;6.456;2022-10-14T03:24:22;5.47;;;5.07;;
14256;SDS011;7212;53.254;6.456;2022-10-14T03:26:48;5.72;;;5.32;;
14256;SDS011;7212;53.254;6.456;2022-10-14T03:29:13;5.25;;;4.85;;
14256;SDS011;7212;53.254;6.456;2022-10-14T03:31:39;5.20;;;4.85;;
14256;SDS011;7212;53.254;6.456;2022-10-14T03:34:05;4.95;;;4.65;;
14256;SDS011;7212;53.254;6.456;2022-10-14T03:36:30;5.15;;;4.85;;
14256;SDS011;7212;53.254;6.456;2022-10-14T03:38:56;5.30;;;4.90;;
14256;SDS011;7212;53.254;6.456;2022-10-14T03:41:22;5.38;;;4.97;;
14256;SDS011;7212;53.254;6.456;2022-10-14T03:43:47;4.85;;;4.55;;
14256;SDS011;7212;53.254;6.456;2022-10-14T03:46:13;4.90;;;4.60;;
14256;SDS011;7212;53.254;6.456;2022-10-14T03:48:39;4.78;;;4.47;;
14256;SDS011;7212;53.254;6.456;2022-10-14T03:51:05;4.65;;;4.35;;
14256;SDS011;7212;53.254;6.456;2022-10-14T03:53:31;4.50;;;4.20;;
14256;SDS011;7212;53.254;6.456;2022-10-14T03:55:57;4.78;;;4.47;;
14256;SDS011;7212;53.254;6.456;2022-10-14T03:58:22;4.57;;;4.28;;
14256;SDS011;7212;53.254;6.456;2022-10-14T04:00:48;4.68;;;4.35;;
14256;SDS011;7212;53.254;6.456;2022-10-14T04:03:14;4.40;;;4.10;;
14256;SDS011;7212;53.254;6.456;2022-10-14T04:05:39;4.38;;;4.07;;
14256;SDS011;7212;53.254;6.456;2022-10-14T04:08:05;4.55;;;4.25;;
14256;SDS011;7212;53.254;6.456;2022-10-14T04:10:31;4.28;;;3.97;;
14256;SDS011;7212;53.254;6.456;2022-10-14T04:12:56;4.43;;;4.13;;
14256;SDS011;7212;53.254;6.456;2022-10-14T04:15:22;4.50;;;4.20;;
14256;SDS011;7212;53.254;6.456;2022-10-14T04:17:48;4.93;;;4.63;;
14256;SDS011;7212;53.254;6.456;2022-10-14T04:20:14;4.50;;;4.20;;
14256;SDS011;7212;53.254;6.456;2022-10-14T04:22:40;4.22;;;3.92;;
14256;SDS011;7212;53.254;6.456;2022-10-14T04:25:06;4.35;;;4.05;;
14256;SDS011;7212;53.254;6.456;2022-10-14T04:27:32;4.70;;;4.38;;
14256;SDS011;7212;53.254;6.456;2022-10-14T04:29:58;4.10;;;3.80;;
14256;SDS011;7212;53.254;6.456;2022-10-14T04:32:23;4.57;;;4.28;;
14256;SDS011;7212;53.254;6.456;2022-10-14T04:34:49;4.43;;;4.13;;
14256;SDS011;7212;53.254;6.456;2022-10-14T04:37:15;5.15;;;4.78;;
14256;SDS011;7212;53.254;6.456;2022-10-14T04:39:41;4.35;;;4.05;;
14256;SDS011;7212;53.254;6.456;2022-10-14T04:42:06;5.20;;;4.80;;
14256;SDS011;7212;53.254;6.456;2022-10-14T04:44:32;4.25;;;3.95;;
14256;SDS011;7212;53.254;6.456;2022-10-14T04:46:58;4.78;;;4.47;;
14256;SDS011;7212;53.254;6.456;2022-10-14T04:49:23;4.80;;;4.50;;
14256;SDS011;7212;53.254;6.456;2022-10-14T04:51:49;5.43;;;4.95;;
14256;SDS011;7212;53.254;6.456;2022-10-14T04:54:14;4.72;;;4.43;;
14256;SDS011;7212;53.254;6.456;2022-10-14T04:56:40;4.70;;;4.40;;
14256;SDS011;7212;53.254;6.456;2022-10-14T04:59:06;5.07;;;4.68;;
14256;SDS011;7212;53.254;6.456;2022-10-14T05:01:31;5.10;;;4.70;;
14256;SDS011;7212;53.254;6.456;2022-10-14T05:03:57;5.28;;;4.88;;
14256;SDS011;7212;53.254;6.456;2022-10-14T05:06:23;5.10;;;4.70;;
14256;SDS011;7212;53.254;6.456;2022-10-14T05:08:49;5.00;;;4.60;;
14256;SDS011;7212;53.254;6.456;2022-10-14T05:11:14;4.60;;;4.30;;
14256;SDS011;7212;53.254;6.456;2022-10-14T05:13:40;5.53;;;5.13;;
14256;SDS011;7212;53.254;6.456;2022-10-14T05:16:06;4.72;;;4.32;;
14256;SDS011;7212;53.254;6.456;2022-10-14T05:18:32;5.20;;;4.80;;
14256;SDS011;7212;53.254;6.456;2022-10-14T05:20:59;4.57;;;4.28;;
14256;SDS011;7212;53.254;6.456;2022-10-14T05:23:24;5.28;;;4.88;;
14256;SDS011;7212;53.254;6.456;2022-10-14T05:25:51;5.05;;;4.65;;
14256;SDS011;7212;53.254;6.456;2022-10-14T05:28:17;5.10;;;4.70;;
14256;SDS011;7212;53.254;6.456;2022-10-14T05:30:43;4.90;;;4.50;;
14256;SDS011;7212;53.254;6.456;2022-10-14T05:33:09;4.65;;;4.35;;
14256;SDS011;7212;53.254;6.456;2022-10-14T05:35:35;4.80;;;4.50;;
14256;SDS011;7212;53.254;6.456;2022-10-14T05:38:01;5.10;;;4.70;;
14256;SDS011;7212;53.254;6.456;2022-10-14T05:40:28;5.30;;;4.90;;
14256;SDS011;7212;53.254;6.456;2022-10-14T05:42:53;4.53;;;4.22;;
14256;SDS011;7212;53.254;6.456;2022-10-14T05:45:19;5.03;;;4.63;;
14256;SDS011;7212;53.254;6.456;2022-10-14T05:47:45;4.85;;;4.45;;
14256;SDS011;7212;53.254;6.456;2022-10-14T05:50:11;5.30;;;4.90;;
14256;SDS011;7212;53.254;6.456;2022-10-14T05:52:38;5.07;;;4.68;;
14256;SDS011;7212;53.254;6.456;2022-10-14T05:55:05;4.78;;;4.38;;
14256;SDS011;7212;53.254;6.456;2022-10-14T05:57:31;5.10;;;4.70;;
14256;SDS011;7212;53.254;6.456;2022-10-14T05:59:58;4.78;;;4.38;;
14256;SDS011;7212;53.254;6.456;2022-10-14T06:02:24;5.15;;;4.75;;
14256;SDS011;7212;53.254;6.456;2022-10-14T06:04:50;5.05;;;4.63;;
14256;SDS011;7212;53.254;6.456;2022-10-14T06:07:16;5.20;;;4.80;;
14256;SDS011;7212;53.254;6.456;2022-10-14T06:09:41;5.30;;;4.80;;
14256;SDS011;7212;53.254;6.456;2022-10-14T06:12:07;5.13;;;4.70;;
14256;SDS011;7212;53.254;6.456;2022-10-14T06:14:33;5.40;;;5.00;;
14256;SDS011;7212;53.254;6.456;2022-10-14T06:17:01;5.25;;;4.85;;
14256;SDS011;7212;53.254;6.456;2022-10-14T06:19:26;5.55;;;5.05;;
14256;SDS011;7212;53.254;6.456;2022-10-14T06:21:52;5.45;;;4.95;;
14256;SDS011;7212;53.254;6.456;2022-10-14T06:24:18;6.22;;;5.63;;
14256;SDS011;7212;53.254;6.456;2022-10-14T06:26:43;6.25;;;5.65;;
14256;SDS011;7212;53.254;6.456;2022-10-14T06:29:09;6.45;;;5.88;;
14256;SDS011;7212;53.254;6.456;2022-10-14T06:31:35;6.57;;;5.85;;
14256;SDS011;7212;53.254;6.456;2022-10-14T06:34:03;6.63;;;6.03;;
14256;SDS011;7212;53.254;6.456;2022-10-14T06:36:29;7.10;;;6.40;;
14256;SDS011;7212;53.254;6.456;2022-10-14T06:38:54;7.05;;;6.35;;
14256;SDS011;7212;53.254;6.456;2022-10-14T06:41:20;7.35;;;6.65;;
14256;SDS011;7212;53.254;6.456;2022-10-14T06:43:46;7.30;;;6.60;;
14256;SDS011;7212;53.254;6.456;2022-10-14T06:46:11;7.25;;;6.55;;
14256;SDS011;7212;53.254;6.456;2022-10-14T06:48:37;7.13;;;6.43;;
14256;SDS011;7212;53.254;6.456;2022-10-14T06:51:03;7.65;;;6.47;;
14256;SDS011;7212;53.254;6.456;2022-10-14T06:53:29;8.20;;;7.15;;
14256;SDS011;7212;53.254;6.456;2022-10-14T06:56:02;7.43;;;6.72;;
14256;SDS011;7212;53.254;6.456;2022-10-14T06:58:29;8.20;;;7.40;;
14256;SDS011;7212;53.254;6.456;2022-10-14T07:00:59;8.00;;;7.20;;
14256;SDS011;7212;53.254;6.456;2022-10-14T07:03:26;8.15;;;7.35;;
14256;SDS011;7212;53.254;6.456;2022-10-14T07:05:52;8.23;;;7.43;;
14256;SDS011;7212;53.254;6.456;2022-10-14T07:08:17;8.65;;;7.75;;
14256;SDS011;7212;53.254;6.456;2022-10-14T07:10:45;8.55;;;7.70;;
14256;SDS011;7212;53.254;6.456;2022-10-14T07:13:11;8.98;;;8.07;;
14256;SDS011;7212;53.254;6.456;2022-10-14T07:15:37;9.43;;;8.43;;
14256;SDS011;7212;53.254;6.456;2022-10-14T07:18:03;8.40;;;7.57;;
14256;SDS011;7212;53.254;6.456;2022-10-14T07:20:30;8.45;;;7.57;;
14256;SDS011;7212;53.254;6.456;2022-10-14T07:22:57;9.93;;;8.73;;
14256;SDS011;7212;53.254;6.456;2022-10-14T07:25:23;9.77;;;8.55;;
14256;SDS011;7212;53.254;6.456;2022-10-14T07:27:49;9.55;;;8.38;;
14256;SDS011;7212;53.254;6.456;2022-10-14T07:30:16;10.20;;;8.65;;
14256;SDS011;7212;53.254;6.456;2022-10-14T07:32:42;10.50;;;9.13;;
14256;SDS011;7212;53.254;6.456;2022-10-14T07:35:07;10.27;;;9.18;;
14256;SDS011;7212;53.254;6.456;2022-10-14T07:37:33;11.02;;;9.10;;
14256;SDS011;7212;53.254;6.456;2022-10-14T07:39:59;10.38;;;9.13;;
14256;SDS011;7212;53.254;6.456;2022-10-14T07:42:24;12.15;;;9.43;;
14256;SDS011;7212;53.254;6.456;2022-10-14T07:44:50;11.82;;;10.05;;
14256;SDS011;7212;53.254;6.456;2022-10-14T07:47:18;12.27;;;10.05;;
14256;SDS011;7212;53.254;6.456;2022-10-14T07:49:43;12.57;;;10.52;;
14256;SDS011;7212;53.254;6.456;2022-10-14T07:52:09;12.75;;;10.35;;
14256;SDS011;7212;53.254;6.456;2022-10-14T07:54:35;12.32;;;9.82;;
14256;SDS011;7212;53.254;6.456;2022-10-14T07:57:01;12.60;;;10.13;;
14256;SDS011;7212;53.254;6.456;2022-10-14T07:59:26;12.27;;;9.57;;
14256;SDS011;7212;53.254;6.456;2022-10-14T08:01:52;12.60;;;10.07;;
14256;SDS011;7212;53.254;6.456;2022-10-14T08:04:19;13.02;;;9.95;;
14256;SDS011;7212;53.254;6.456;2022-10-14T08:06:48;12.98;;;10.38;;
14256;SDS011;7212;53.254;6.456;2022-10-14T08:09:14;12.98;;;11.00;;
14256;SDS011;7212;53.254;6.456;2022-10-14T08:11:40;14.10;;;10.85;;
14256;SDS011;7212;53.254;6.456;2022-10-14T08:14:07;14.02;;;10.95;;
14256;SDS011;7212;53.254;6.456;2022-10-14T08:16:33;13.73;;;11.05;;
14256;SDS011;7212;53.254;6.456;2022-10-14T08:19:01;15.48;;;12.20;;
14256;SDS011;7212;53.254;6.456;2022-10-14T08:21:28;19.70;;;13.25;;
14256;SDS011;7212;53.254;6.456;2022-10-14T08:23:54;14.88;;;12.13;;
14256;SDS011;7212;53.254;6.456;2022-10-14T08:26:21;17.75;;;12.32;;
14256;SDS011;7212;53.254;6.456;2022-10-14T08:28:52;16.17;;;12.32;;
14256;SDS011;7212;53.254;6.456;2022-10-14T08:31:17;15.98;;;12.20;;
14256;SDS011;7212;53.254;6.456;2022-10-14T08:33:43;18.63;;;13.10;;
14256;SDS011;7212;53.254;6.456;2022-10-14T08:36:09;16.90;;;12.80;;
14256;SDS011;7212;53.254;6.456;2022-10-14T08:38:35;17.13;;;13.20;;
14256;SDS011;7212;53.254;6.456;2022-10-14T08:41:03;17.67;;;13.35;;
14256;SDS011;7212;53.254;6.456;2022-10-14T08:47:00;18.67;;;13.18;;
14256;SDS011;7212;53.254;6.456;2022-10-14T08:52:39;18.40;;;13.32;;
14256;SDS011;7212;53.254;6.456;2022-10-14T08:55:26;18.35;;;13.15;;
14256;SDS011;7212;53.254;6.456;2022-10-14T09:00:41;18.17;;;13.90;;
14256;SDS011;7212;53.254;6.456;2022-10-14T09:03:13;19.13;;;13.90;;
14256;SDS011;7212;53.254;6.456;2022-10-14T09:05:57;18.48;;;13.43;;
14256;SDS011;7212;53.254;6.456;2022-10-14T09:08:27;17.98;;;14.23;;
14256;SDS011;7212;53.254;6.456;2022-10-14T09:10:59;19.08;;;14.60;;
14256;SDS011;7212;53.254;6.456;2022-10-14T09:13:30;19.58;;;14.25;;
14256;SDS011;7212;53.254;6.456;2022-10-14T09:16:15;19.80;;;14.43;;
14256;SDS011;7212;53.254;6.456;2022-10-14T09:18:49;19.10;;;15.35;;
14256;SDS011;7212;53.254;6.456;2022-10-14T09:23:58;17.92;;;13.70;;
14256;SDS011;7212;53.254;6.456;2022-10-14T09:26:37;18.67;;;14.40;;
14256;SDS011;7212;53.254;6.456;2022-10-14T09:29:05;18.65;;;14.63;;
14256;SDS011;7212;53.254;6.456;2022-10-14T09:32:07;19.83;;;14.88;;
14256;SDS011;7212;53.254;6.456;2022-10-14T09:34:55;18.08;;;14.68;;
14256;SDS011;7212;53.254;6.456;2022-10-14T09:37:35;18.92;;;15.35;;
14256;SDS011;7212;53.254;6.456;2022-10-14T09:40:47;21.58;;;16.48;;
14256;SDS011;7212;53.254;6.456;2022-10-14T09:51:10;20.83;;;16.83;;
14256;SDS011;7212;53.254;6.456;2022-10-14T09:53:53;20.52;;;15.88;;
14256;SDS011;7212;53.254;6.456;2022-10-14T09:59:04;21.27;;;16.80;;
14256;SDS011;7212;53.254;6.456;2022-10-14T10:01:50;19.80;;;16.58;;
14256;SDS011;7212;53.254;6.456;2022-10-14T10:06:56;20.60;;;16.90;;
14256;SDS011;7212;53.254;6.456;2022-10-14T10:09:23;19.83;;;16.88;;
14256;SDS011;7212;53.254;6.456;2022-10-14T10:11:49;21.27;;;16.98;;
14256;SDS011;7212;53.254;6.456;2022-10-14T10:16:40;20.02;;;17.35;;
14256;SDS011;7212;53.254;6.456;2022-10-14T10:19:19;18.83;;;15.75;;
14256;SDS011;7212;53.254;6.456;2022-10-14T10:21:45;20.00;;;16.42;;
14256;SDS011;7212;53.254;6.456;2022-10-14T10:24:20;20.60;;;17.60;;
14256;SDS011;7212;53.254;6.456;2022-10-14T10:26:47;20.85;;;17.42;;
14256;SDS011;7212;53.254;6.456;2022-10-14T10:29:24;20.80;;;17.45;;
14256;SDS011;7212;53.254;6.456;2022-10-14T10:37:23;20.27;;;16.50;;
14256;SDS011;7212;53.254;6.456;2022-10-14T10:48:00;19.90;;;16.45;;
14256;SDS011;7212;53.254;6.456;2022-10-14T10:53:47;18.75;;;15.95;;
14256;SDS011;7212;53.254;6.456;2022-10-14T10:56:30;19.00;;;16.45;;
14256;SDS011;7212;53.254;6.456;2022-10-14T11:01:52;18.15;;;15.95;;
14256;SDS011;7212;53.254;6.456;2022-10-14T11:04:46;18.75;;;15.68;;
14256;SDS011;7212;53.254;6.456;2022-10-14T11:10:48;19.23;;;16.55;;
14256;SDS011;7212;53.254;6.456;2022-10-14T11:13:44;16.15;;;14.43;;
14256;SDS011;7212;53.254;6.456;2022-10-14T11:19:23;16.83;;;14.40;;
14256;SDS011;7212;53.254;6.456;2022-10-14T11:24:53;15.82;;;13.45;;
14256;SDS011;7212;53.254;6.456;2022-10-14T11:30:16;15.15;;;13.38;;
14256;SDS011;7212;53.254;6.456;2022-10-14T11:32:49;14.68;;;13.05;;
14256;SDS011;7212;53.254;6.456;2022-10-14T11:38:10;14.45;;;12.93;;
14256;SDS011;7212;53.254;6.456;2022-10-14T11:41:01;14.48;;;12.57;;
14256;SDS011;7212;53.254;6.456;2022-10-14T11:46:54;13.18;;;11.38;;
14256;SDS011;7212;53.254;6.456;2022-10-14T11:49:25;12.88;;;11.27;;
14256;SDS011;7212;53.254;6.456;2022-10-14T11:52:00;12.93;;;11.10;;
14256;SDS011;7212;53.254;6.456;2022-10-14T12:00:10;12.13;;;10.88;;
14256;SDS011;7212;53.254;6.456;2022-10-14T12:02:50;11.52;;;10.30;;
14256;SDS011;7212;53.254;6.456;2022-10-14T12:05:38;10.20;;;8.95;;
14256;SDS011;7212;53.254;6.456;2022-10-14T12:11:04;9.35;;;8.45;;
14256;SDS011;7212;53.254;6.456;2022-10-14T12:13:41;9.07;;;8.02;;
14256;SDS011;7212;53.254;6.456;2022-10-14T12:16:14;9.20;;;8.30;;
14256;SDS011;7212;53.254;6.456;2022-10-14T12:18:41;9.50;;;8.52;;
14256;SDS011;7212;53.254;6.456;2022-10-14T12:21:16;9.10;;;8.20;;
14256;SDS011;7212;53.254;6.456;2022-10-14T12:24:01;8.85;;;7.75;;
14256;SDS011;7212;53.254;6.456;2022-10-14T12:29:15;7.88;;;7.07;;
14256;SDS011;7212;53.254;6.456;2022-10-14T12:31:48;7.57;;;6.63;;
14256;SDS011;7212;53.254;6.456;2022-10-14T12:34:38;8.07;;;7.28;;
14256;SDS011;7212;53.254;6.456;2022-10-14T12:39:52;7.50;;;6.80;;
14256;SDS011;7212;53.254;6.456;2022-10-14T12:45:23;7.38;;;6.43;;
14256;SDS011;7212;53.254;6.456;2022-10-14T12:50:37;7.85;;;7.05;;
14256;SDS011;7212;53.254;6.456;2022-10-14T12:53:15;7.95;;;7.15;;
14256;SDS011;7212;53.254;6.456;2022-10-14T12:55:47;7.13;;;6.43;;
14256;SDS011;7212;53.254;6.456;2022-10-14T12:58:21;8.15;;;6.75;;
14256;SDS011;7212;53.254;6.456;2022-10-14T13:00:58;8.23;;;7.38;;
14256;SDS011;7212;53.254;6.456;2022-10-14T13:04:04;7.00;;;6.30;;
14256;SDS011;7212;53.254;6.456;2022-10-14T13:06:42;7.45;;;6.68;;
14256;SDS011;7212;53.254;6.456;2022-10-14T13:11:40;7.45;;;6.65;;
14256;SDS011;7212;53.254;6.456;2022-10-14T13:14:30;7.30;;;6.60;;
14256;SDS011;7212;53.254;6.456;2022-10-14T13:17:00;7.50;;;6.70;;
14256;SDS011;7212;53.254;6.456;2022-10-14T13:22:40;7.68;;;6.88;;
14256;SDS011;7212;53.254;6.456;2022-10-14T13:24:59;7.63;;;6.90;;
14256;SDS011;7212;53.254;6.456;2022-10-14T13:30:31;7.25;;;6.55;;
14256;SDS011;7212;53.254;6.456;2022-10-14T13:38:50;8.15;;;7.35;;
14256;SDS011;7212;53.254;6.456;2022-10-14T13:41:19;7.80;;;7.10;;
14256;SDS011;7212;53.254;6.456;2022-10-14T13:43:50;7.35;;;6.65;;
14256;SDS011;7212;53.254;6.456;2022-10-14T13:46:31;8.07;;;7.30;;
14256;SDS011;7212;53.254;6.456;2022-10-14T13:49:04;7.88;;;7.07;;
14256;SDS011;7212;53.254;6.456;2022-10-14T13:54:20;8.52;;;7.72;;
14256;SDS011;7212;53.254;6.456;2022-10-14T13:56:57;8.52;;;7.55;;
14256;SDS011;7212;53.254;6.456;2022-10-14T13:59:27;9.73;;;8.73;;
14256;SDS011;7212;53.254;6.456;2022-10-14T14:01:55;9.38;;;8.48;;
14256;SDS011;7212;53.254;6.456;2022-10-14T14:04:25;8.63;;;7.82;;
14256;SDS011;7212;53.254;6.456;2022-10-14T14:06:55;8.82;;;7.93;;
14256;SDS011;7212;53.254;6.456;2022-10-14T14:09:22;11.25;;;10.15;;
14256;SDS011;7212;53.254;6.456;2022-10-14T14:11:55;10.85;;;9.75;;
14256;SDS011;7212;53.254;6.456;2022-10-14T14:14:34;10.18;;;9.18;;
14256;SDS011;7212;53.254;6.456;2022-10-14T14:17:25;10.60;;;9.50;;
14256;SDS011;7212;53.254;6.456;2022-10-14T14:19:55;10.02;;;9.00;;
14256;SDS011;7212;53.254;6.456;2022-10-14T14:22:22;9.82;;;8.80;;
14256;SDS011;7212;53.254;6.456;2022-10-14T14:24:51;10.02;;;9.02;;
14256;SDS011;7212;53.254;6.456;2022-10-14T14:27:33;10.13;;;9.18;;
14256;SDS011;7212;53.254;6.456;2022-10-14T14:29:58;9.98;;;8.38;;
14256;SDS011;7212;53.254;6.456;2022-10-14T14:32:27;11.02;;;9.93;;
14256;SDS011;7212;53.254;6.456;2022-10-14T14:34:55;10.45;;;9.38;;
14256;SDS011;7212;53.254;6.456;2022-10-14T14:37:28;11.70;;;10.55;;
14256;SDS011;7212;53.254;6.456;2022-10-14T14:40:00;10.57;;;9.57;;
14256;SDS011;7212;53.254;6.456;2022-10-14T14:42:29;11.93;;;10.80;;
14256;SDS011;7212;53.254;6.456;2022-10-14T14:45:04;11.13;;;10.13;;
14256;SDS011;7212;53.254;6.456;2022-10-14T14:47:36;10.48;;;9.45;;
14256;SDS011;7212;53.254;6.456;2022-10-14T14:50:03;11.05;;;9.95;;
14256;SDS011;7212;53.254;6.456;2022-10-14T14:52:30;10.30;;;9.23;;
14256;SDS011;7212;53.254;6.456;2022-10-14T14:54:55;11.48;;;10.38;;
14256;SDS011;7212;53.254;6.456;2022-10-14T14:57:21;10.60;;;9.60;;
14256;SDS011;7212;53.254;6.456;2022-10-14T14:59:55;11.10;;;9.85;;
14256;SDS011;7212;53.254;6.456;2022-10-14T15:02:25;10.68;;;9.60;;
14256;SDS011;7212;53.254;6.456;2022-10-14T15:05:05;11.55;;;10.45;;
14256;SDS011;7212;53.254;6.456;2022-10-14T15:07:32;10.90;;;9.80;;
14256;SDS011;7212;53.254;6.456;2022-10-14T15:10:00;11.48;;;10.32;;
14256;SDS011;7212;53.254;6.456;2022-10-14T15:12:29;10.88;;;9.88;;
14256;SDS011;7212;53.254;6.456;2022-10-14T15:14:56;10.73;;;9.65;;
14256;SDS011;7212;53.254;6.456;2022-10-14T15:17:28;10.52;;;9.43;;
14256;SDS011;7212;53.254;6.456;2022-10-14T15:20:25;10.07;;;9.13;;
14256;SDS011;7212;53.254;6.456;2022-10-14T15:22:53;11.27;;;10.18;;
14256;SDS011;7212;53.254;6.456;2022-10-14T15:25:22;10.30;;;9.30;;
14256;SDS011;7212;53.254;6.456;2022-10-14T15:27:52;10.65;;;9.65;;
14256;SDS011;7212;53.254;6.456;2022-10-14T15:30:23;9.82;;;8.93;;
14256;SDS011;7212;53.254;6.456;2022-10-14T15:32:57;10.15;;;9.18;;
14256;SDS011;7212;53.254;6.456;2022-10-14T15:35:24;10.05;;;9.05;;
14256;SDS011;7212;53.254;6.456;2022-10-14T15:37:51;10.00;;;9.10;;
14256;SDS011;7212;53.254;6.456;2022-10-14T15:40:22;9.15;;;8.30;;
14256;SDS011;7212;53.254;6.456;2022-10-14T15:42:52;8.80;;;8.00;;
14256;SDS011;7212;53.254;6.456;2022-10-14T15:45:18;9.05;;;8.25;;
14256;SDS011;7212;53.254;6.456;2022-10-14T15:47:44;8.27;;;7.47;;
14256;SDS011;7212;53.254;6.456;2022-10-14T15:50:17;9.15;;;8.25;;
14256;SDS011;7212;53.254;6.456;2022-10-14T15:52:45;8.15;;;7.45;;
14256;SDS011;7212;53.254;6.456;2022-10-14T15:55:15;8.25;;;7.45;;
14256;SDS011;7212;53.254;6.456;2022-10-14T15:57:43;8.88;;;7.97;;
14256;SDS011;7212;53.254;6.456;2022-10-14T16:00:10;8.23;;;7.43;;
14256;SDS011;7212;53.254;6.456;2022-10-14T16:02:36;7.88;;;7.18;;
14256;SDS011;7212;53.254;6.456;2022-10-14T16:05:01;7.93;;;7.13;;
14256;SDS011;7212;53.254;6.456;2022-10-14T16:07:27;7.22;;;6.63;;
14256;SDS011;7212;53.254;6.456;2022-10-14T16:09:53;6.72;;;6.13;;
14256;SDS011;7212;53.254;6.456;2022-10-14T16:12:18;7.28;;;6.68;;
14256;SDS011;7212;53.254;6.456;2022-10-14T16:14:44;6.70;;;6.20;;
14256;SDS011;7212;53.254;6.456;2022-10-14T16:17:09;7.22;;;6.47;;
14256;SDS011;7212;53.254;6.456;2022-10-14T16:19:35;7.32;;;6.63;;
14256;SDS011;7212;53.254;6.456;2022-10-14T16:22:01;7.28;;;6.57;;
14256;SDS011;7212;53.254;6.456;2022-10-14T16:24:26;6.30;;;5.80;;
14256;SDS011;7212;53.254;6.456;2022-10-14T16:26:52;6.63;;;6.03;;
14256;SDS011;7212;53.254;6.456;2022-10-14T16:29:19;7.32;;;6.32;;
14256;SDS011;7212;53.254;6.456;2022-10-14T16:31:48;6.50;;;5.90;;
14256;SDS011;7212;53.254;6.456;2022-10-14T16:34:14;6.07;;;5.57;;
14256;SDS011;7212;53.254;6.456;2022-10-14T16:36:41;6.03;;;5.53;;
14256;SDS011;7212;53.254;6.456;2022-10-14T16:39:08;5.70;;;5.28;;
14256;SDS011;7212;53.254;6.456;2022-10-14T16:41:34;5.65;;;5.15;;
14256;SDS011;7212;53.254;6.456;2022-10-14T16:44:01;5.75;;;5.25;;
14256;SDS011;7212;53.254;6.456;2022-10-14T16:46:27;5.50;;;5.00;;
14256;SDS011;7212;53.254;6.456;2022-10-14T16:49:11;5.35;;;4.95;;
14256;SDS011;7212;53.254;6.456;2022-10-14T16:51:38;5.53;;;5.13;;
14256;SDS011;7212;53.254;6.456;2022-10-14T16:54:05;5.53;;;5.13;;
14256;SDS011;7212;53.254;6.456;2022-10-14T16:56:30;5.25;;;4.85;;
14256;SDS011;7212;53.254;6.456;2022-10-14T16:59:14;5.38;;;4.97;;
14256;SDS011;7212;53.254;6.456;2022-10-14T17:01:40;5.65;;;5.20;;
14256;SDS011;7212;53.254;6.456;2022-10-14T17:04:06;5.00;;;4.60;;
14256;SDS011;7212;53.254;6.456;2022-10-14T17:06:32;5.53;;;5.13;;
14256;SDS011;7212;53.254;6.456;2022-10-14T17:08:58;5.40;;;4.90;;
14256;SDS011;7212;53.254;6.456;2022-10-14T17:11:24;6.03;;;5.53;;
14256;SDS011;7212;53.254;6.456;2022-10-14T17:13:52;5.28;;;4.88;;